Ivesdale, IL (61851)

1:55 AM CST on December 09, 2016 (GMT -0600)
Jones Family | | Change Station

Elev 745 ft 40.00 °N, 88.58 °W | Updated 40 seconds ago

Snow
Snow
20.7 °F
Feels Like 14 °F
N
4.5
Wind Variable Wind from NW
Gusts 6.9 mph

Today
High -- | Low -- °F
--% Chance of Precip.
Yesterday
High -- | Low -- °F
Precip. -- in
Pressure 30.54 in
Visibility 5.0 miles
Clouds Overcast 2400 ft
Windchill 14 °F
Dew Point 4 °F
Humidity 47%
Rainfall 0.00 in
Snow Depth Not available.
7:04 AM 4:28 PM
Waxing Gibbous, 71% visible
METAR KCMI 090653Z AUTO 28012KT 5SM -SN OVC024 M06/M09 A3050 RMK AO2 SLP341 P0000 T10611094
Pressure 30.54 in
Visibility 5.0 miles
Clouds Overcast 2400 ft
Windchill 14 °F
Dew Point 4 °F
Humidity 47%
Rainfall 0.00 in
Snow Depth Not available.
7:04 AM 4:28 PM
Waxing Gibbous, 71% visible
METAR KCMI 090653Z AUTO 28012KT 5SM -SN OVC024 M06/M09 A3050 RMK AO2 SLP341 P0000 T10611094

10-Day Weather Forecast

Almanac

Astronomy

Dec. 09, 2016 Rise Set
Actual Time
Civil Twilight
Nautical Twilight
Astronomical Twilight
Moon
Length of Visible Light
Length of Day
Tomorrow will be .
, % of the Moon is Illuminated

Today's Extremes

State Highs State Lows

Community

WunderPhotos

Upload Photos

1,956,371 photos uploaded!

WunderBlog® & News

Nearby

Air Quality

  Air Quality AQ Index Pollutant
Not available.

Snow Depth

Station Depth Elevation

Earthquake Activity

City Distance Mag. Time & Date
Minimum magnitude displayed is 2.5.

Coastal Water Temperatures

Place Temperature

Stations

Nearby Weather Stations

Station Location Temp. Windchill Dew Point Humidity Wind Precip. Elev Updated Type
                   

Watches & Warnings

There are currently no watches in effect.